sensor_id;sensor_type;location;lat;lon;timestamp;P1;durP1;ratioP1;P2;durP2;ratioP2
1975;SDS011;988;48.016;7.800;2023-04-25T00:02:05;14.07;;;13.07;;
1975;SDS011;988;48.016;7.800;2023-04-25T00:04:31;14.60;;;13.45;;
1975;SDS011;988;48.016;7.800;2023-04-25T00:06:58;14.13;;;13.15;;
1975;SDS011;988;48.016;7.800;2023-04-25T00:09:26;13.52;;;12.65;;
1975;SDS011;988;48.016;7.800;2023-04-25T00:11:52;13.85;;;13.15;;
1975;SDS011;988;48.016;7.800;2023-04-25T00:14:18;15.77;;;14.70;;
1975;SDS011;988;48.016;7.800;2023-04-25T00:16:44;13.63;;;12.63;;
1975;SDS011;988;48.016;7.800;2023-04-25T00:19:09;13.70;;;12.90;;
1975;SDS011;988;48.016;7.800;2023-04-25T00:21:35;14.57;;;13.53;;
1975;SDS011;988;48.016;7.800;2023-04-25T00:24:02;14.45;;;13.35;;
1975;SDS011;988;48.016;7.800;2023-04-25T00:26:28;13.23;;;12.43;;
1975;SDS011;988;48.016;7.800;2023-04-25T00:28:53;13.53;;;12.60;;
1975;SDS011;988;48.016;7.800;2023-04-25T00:31:19;15.63;;;14.63;;
1975;SDS011;988;48.016;7.800;2023-04-25T00:33:45;14.80;;;13.60;;
1975;SDS011;988;48.016;7.800;2023-04-25T00:36:10;14.43;;;13.53;;
1975;SDS011;988;48.016;7.800;2023-04-25T00:38:36;15.00;;;14.10;;
1975;SDS011;988;48.016;7.800;2023-04-25T00:41:03;14.88;;;13.77;;
1975;SDS011;988;48.016;7.800;2023-04-25T00:43:30;14.57;;;13.48;;
1975;SDS011;988;48.016;7.800;2023-04-25T00:45:57;14.82;;;13.90;;
1975;SDS011;988;48.016;7.800;2023-04-25T00:48:25;14.30;;;13.50;;
1975;SDS011;988;48.016;7.800;2023-04-25T00:50:52;15.37;;;14.30;;
1975;SDS011;988;48.016;7.800;2023-04-25T00:53:19;15.15;;;14.10;;
1975;SDS011;988;48.016;7.800;2023-04-25T00:55:49;14.75;;;13.50;;
1975;SDS011;988;48.016;7.800;2023-04-25T00:58:16;14.90;;;13.90;;
1975;SDS011;988;48.016;7.800;2023-04-25T01:00:42;14.02;;;12.98;;
1975;SDS011;988;48.016;7.800;2023-04-25T01:03:10;14.07;;;13.23;;
1975;SDS011;988;48.016;7.800;2023-04-25T01:05:35;13.93;;;12.90;;
1975;SDS011;988;48.016;7.800;2023-04-25T01:08:01;13.70;;;12.90;;
1975;SDS011;988;48.016;7.800;2023-04-25T01:10:27;14.53;;;13.73;;
1975;SDS011;988;48.016;7.800;2023-04-25T01:12:52;15.70;;;14.60;;
1975;SDS011;988;48.016;7.800;2023-04-25T01:15:18;14.33;;;13.37;;
1975;SDS011;988;48.016;7.800;2023-04-25T01:17:44;13.60;;;12.70;;
1975;SDS011;988;48.016;7.800;2023-04-25T01:20:09;14.30;;;12.80;;
1975;SDS011;988;48.016;7.800;2023-04-25T01:22:36;14.00;;;12.82;;
1975;SDS011;988;48.016;7.800;2023-04-25T01:25:03;13.60;;;12.60;;
1975;SDS011;988;48.016;7.800;2023-04-25T01:27:29;14.77;;;13.68;;
1975;SDS011;988;48.016;7.800;2023-04-25T01:29:55;14.15;;;13.15;;
1975;SDS011;988;48.016;7.800;2023-04-25T01:32:22;14.13;;;13.13;;
1975;SDS011;988;48.016;7.800;2023-04-25T01:34:48;15.18;;;14.00;;
1975;SDS011;988;48.016;7.800;2023-04-25T01:37:14;14.90;;;13.80;;
1975;SDS011;988;48.016;7.800;2023-04-25T01:39:41;14.65;;;13.75;;
1975;SDS011;988;48.016;7.800;2023-04-25T01:42:07;14.43;;;13.52;;
1975;SDS011;988;48.016;7.800;2023-04-25T01:44:32;14.00;;;13.20;;
1975;SDS011;988;48.016;7.800;2023-04-25T01:46:58;14.87;;;13.63;;
1975;SDS011;988;48.016;7.800;2023-04-25T01:49:23;15.00;;;13.90;;
1975;SDS011;988;48.016;7.800;2023-04-25T01:51:49;14.37;;;13.27;;
1975;SDS011;988;48.016;7.800;2023-04-25T01:54:15;15.70;;;14.60;;
1975;SDS011;988;48.016;7.800;2023-04-25T01:56:40;14.93;;;13.40;;
1975;SDS011;988;48.016;7.800;2023-04-25T01:59:06;15.07;;;14.07;;
1975;SDS011;988;48.016;7.800;2023-04-25T02:01:32;15.00;;;13.93;;
1975;SDS011;988;48.016;7.800;2023-04-25T02:03:57;15.73;;;14.63;;
1975;SDS011;988;48.016;7.800;2023-04-25T02:06:23;14.33;;;13.00;;
1975;SDS011;988;48.016;7.800;2023-04-25T02:08:49;15.30;;;14.30;;
1975;SDS011;988;48.016;7.800;2023-04-25T02:11:15;16.27;;;15.18;;
1975;SDS011;988;48.016;7.800;2023-04-25T02:13:40;17.00;;;15.80;;
1975;SDS011;988;48.016;7.800;2023-04-25T02:16:06;16.20;;;15.20;;
1975;SDS011;988;48.016;7.800;2023-04-25T02:18:31;16.23;;;15.10;;
1975;SDS011;988;48.016;7.800;2023-04-25T02:20:58;17.90;;;16.80;;
1975;SDS011;988;48.016;7.800;2023-04-25T02:23:24;16.73;;;15.50;;
1975;SDS011;988;48.016;7.800;2023-04-25T02:25:50;15.37;;;14.40;;
1975;SDS011;988;48.016;7.800;2023-04-25T02:28:16;15.85;;;14.57;;
1975;SDS011;988;48.016;7.800;2023-04-25T02:30:42;14.47;;;13.67;;
1975;SDS011;988;48.016;7.800;2023-04-25T02:33:07;15.10;;;14.10;;
1975;SDS011;988;48.016;7.800;2023-04-25T02:35:34;15.18;;;14.07;;
1975;SDS011;988;48.016;7.800;2023-04-25T02:37:59;13.13;;;12.33;;
1975;SDS011;988;48.016;7.800;2023-04-25T02:40:25;13.93;;;12.87;;
1975;SDS011;988;48.016;7.800;2023-04-25T02:42:51;14.30;;;13.10;;
1975;SDS011;988;48.016;7.800;2023-04-25T02:45:16;14.77;;;13.70;;
1975;SDS011;988;48.016;7.800;2023-04-25T02:47:42;13.40;;;12.43;;
1975;SDS011;988;48.016;7.800;2023-04-25T02:50:07;14.27;;;13.17;;
1975;SDS011;988;48.016;7.800;2023-04-25T02:52:33;15.68;;;14.13;;
1975;SDS011;988;48.016;7.800;2023-04-25T02:54:59;14.20;;;13.37;;
1975;SDS011;988;48.016;7.800;2023-04-25T02:57:24;14.83;;;13.63;;
1975;SDS011;988;48.016;7.800;2023-04-25T02:59:50;14.07;;;12.90;;
1975;SDS011;988;48.016;7.800;2023-04-25T03:02:15;15.10;;;13.40;;
1975;SDS011;988;48.016;7.800;2023-04-25T03:04:41;15.33;;;14.03;;
1975;SDS011;988;48.016;7.800;2023-04-25T03:07:07;14.27;;;13.43;;
1975;SDS011;988;48.016;7.800;2023-04-25T03:09:32;15.90;;;14.40;;
1975;SDS011;988;48.016;7.800;2023-04-25T03:11:58;15.07;;;13.90;;
1975;SDS011;988;48.016;7.800;2023-04-25T03:14:24;15.73;;;14.83;;
1975;SDS011;988;48.016;7.800;2023-04-25T03:16:49;16.37;;;14.97;;
1975;SDS011;988;48.016;7.800;2023-04-25T03:19:15;15.43;;;14.40;;
1975;SDS011;988;48.016;7.800;2023-04-25T03:21:42;15.10;;;13.75;;
1975;SDS011;988;48.016;7.800;2023-04-25T03:24:08;15.77;;;14.68;;
1975;SDS011;988;48.016;7.800;2023-04-25T03:26:33;15.13;;;14.10;;
1975;SDS011;988;48.016;7.800;2023-04-25T03:28:59;14.67;;;13.67;;
1975;SDS011;988;48.016;7.800;2023-04-25T03:31:24;14.50;;;13.80;;
1975;SDS011;988;48.016;7.800;2023-04-25T03:33:50;15.40;;;14.50;;
1975;SDS011;988;48.016;7.800;2023-04-25T03:36:16;15.47;;;14.37;;
1975;SDS011;988;48.016;7.800;2023-04-25T03:38:41;15.83;;;14.50;;
1975;SDS011;988;48.016;7.800;2023-04-25T03:41:07;15.80;;;14.70;;
1975;SDS011;988;48.016;7.800;2023-04-25T03:43:33;15.40;;;13.90;;
1975;SDS011;988;48.016;7.800;2023-04-25T03:45:58;14.73;;;14.03;;
1975;SDS011;988;48.016;7.800;2023-04-25T03:48:26;15.05;;;13.95;;
1975;SDS011;988;48.016;7.800;2023-04-25T03:50:52;15.50;;;14.60;;
1975;SDS011;988;48.016;7.800;2023-04-25T03:53:18;15.07;;;14.13;;
1975;SDS011;988;48.016;7.800;2023-04-25T03:55:43;15.33;;;14.33;;
1975;SDS011;988;48.016;7.800;2023-04-25T03:58:09;16.57;;;15.43;;
1975;SDS011;988;48.016;7.800;2023-04-25T04:00:35;15.77;;;14.87;;
1975;SDS011;988;48.016;7.800;2023-04-25T04:03:01;16.10;;;15.30;;
1975;SDS011;988;48.016;7.800;2023-04-25T04:05:27;19.13;;;16.47;;
1975;SDS011;988;48.016;7.800;2023-04-25T04:07:53;15.98;;;15.07;;
1975;SDS011;988;48.016;7.800;2023-04-25T04:10:19;17.38;;;16.05;;
1975;SDS011;988;48.016;7.800;2023-04-25T04:12:45;17.40;;;16.17;;
1975;SDS011;988;48.016;7.800;2023-04-25T04:15:10;17.57;;;16.57;;
1975;SDS011;988;48.016;7.800;2023-04-25T04:17:36;17.92;;;16.25;;
1975;SDS011;988;48.016;7.800;2023-04-25T04:20:02;18.40;;;17.07;;
1975;SDS011;988;48.016;7.800;2023-04-25T04:22:28;17.27;;;15.98;;
1975;SDS011;988;48.016;7.800;2023-04-25T04:24:54;17.40;;;16.27;;
1975;SDS011;988;48.016;7.800;2023-04-25T04:27:22;16.55;;;15.55;;
1975;SDS011;988;48.016;7.800;2023-04-25T04:29:47;17.00;;;15.88;;
1975;SDS011;988;48.016;7.800;2023-04-25T04:32:14;17.17;;;15.83;;
1975;SDS011;988;48.016;7.800;2023-04-25T04:34:40;16.20;;;15.27;;
1975;SDS011;988;48.016;7.800;2023-04-25T04:37:06;16.93;;;16.03;;
1975;SDS011;988;48.016;7.800;2023-04-25T04:39:32;16.70;;;15.27;;
1975;SDS011;988;48.016;7.800;2023-04-25T04:41:58;16.25;;;14.85;;
1975;SDS011;988;48.016;7.800;2023-04-25T04:44:26;17.38;;;15.98;;
1975;SDS011;988;48.016;7.800;2023-04-25T04:46:53;18.58;;;17.23;;
1975;SDS011;988;48.016;7.800;2023-04-25T04:49:19;17.90;;;16.80;;
1975;SDS011;988;48.016;7.800;2023-04-25T04:51:44;18.60;;;17.40;;
1975;SDS011;988;48.016;7.800;2023-04-25T04:54:10;17.87;;;16.27;;
1975;SDS011;988;48.016;7.800;2023-04-25T04:56:35;18.97;;;17.60;;
1975;SDS011;988;48.016;7.800;2023-04-25T04:59:01;18.03;;;16.73;;
1975;SDS011;988;48.016;7.800;2023-04-25T05:01:27;18.55;;;16.77;;
1975;SDS011;988;48.016;7.800;2023-04-25T05:03:53;18.88;;;17.45;;
1975;SDS011;988;48.016;7.800;2023-04-25T05:06:24;20.65;;;18.00;;
1975;SDS011;988;48.016;7.800;2023-04-25T05:08:50;20.43;;;18.47;;
1975;SDS011;988;48.016;7.800;2023-04-25T05:11:16;19.57;;;18.10;;
1975;SDS011;988;48.016;7.800;2023-04-25T05:13:41;17.53;;;16.53;;
1975;SDS011;988;48.016;7.800;2023-04-25T05:16:07;18.13;;;16.40;;
1975;SDS011;988;48.016;7.800;2023-04-25T05:18:33;16.33;;;15.03;;
1975;SDS011;988;48.016;7.800;2023-04-25T05:20:58;15.90;;;14.50;;
1975;SDS011;988;48.016;7.800;2023-04-25T05:23:24;16.03;;;14.60;;
1975;SDS011;988;48.016;7.800;2023-04-25T05:25:49;14.23;;;13.27;;
1975;SDS011;988;48.016;7.800;2023-04-25T05:28:15;15.00;;;14.00;;
1975;SDS011;988;48.016;7.800;2023-04-25T05:30:40;14.87;;;12.80;;
1975;SDS011;988;48.016;7.800;2023-04-25T05:33:06;13.23;;;12.10;;
1975;SDS011;988;48.016;7.800;2023-04-25T05:35:32;12.30;;;11.37;;
1975;SDS011;988;48.016;7.800;2023-04-25T05:37:57;11.60;;;10.80;;
1975;SDS011;988;48.016;7.800;2023-04-25T05:40:25;11.05;;;10.20;;
1975;SDS011;988;48.016;7.800;2023-04-25T05:42:51;9.07;;;8.27;;
1975;SDS011;988;48.016;7.800;2023-04-25T05:45:16;7.43;;;6.93;;
1975;SDS011;988;48.016;7.800;2023-04-25T05:47:42;9.38;;;5.60;;
1975;SDS011;988;48.016;7.800;2023-04-25T05:50:08;4.73;;;4.30;;
1975;SDS011;988;48.016;7.800;2023-04-25T05:52:33;6.00;;;5.63;;
1975;SDS011;988;48.016;7.800;2023-04-25T05:55:01;8.98;;;4.25;;
1975;SDS011;988;48.016;7.800;2023-04-25T05:57:27;6.13;;;1.95;;
1975;SDS011;988;48.016;7.800;2023-04-25T05:59:53;3.93;;;2.27;;
1975;SDS011;988;48.016;7.800;2023-04-25T06:02:19;2.40;;;1.77;;
1975;SDS011;988;48.016;7.800;2023-04-25T06:04:46;4.90;;;2.03;;
1975;SDS011;988;48.016;7.800;2023-04-25T06:07:12;3.45;;;2.05;;
1975;SDS011;988;48.016;7.800;2023-04-25T06:09:38;1.97;;;1.77;;
1975;SDS011;988;48.016;7.800;2023-04-25T06:12:05;2.58;;;1.92;;
1975;SDS011;988;48.016;7.800;2023-04-25T06:14:31;6.45;;;2.30;;
1975;SDS011;988;48.016;7.800;2023-04-25T06:16:56;2.83;;;2.63;;
1975;SDS011;988;48.016;7.800;2023-04-25T06:19:22;2.60;;;2.20;;
1975;SDS011;988;48.016;7.800;2023-04-25T06:21:47;4.43;;;2.83;;
1975;SDS011;988;48.016;7.800;2023-04-25T06:24:13;3.33;;;3.03;;
1975;SDS011;988;48.016;7.800;2023-04-25T06:26:38;5.53;;;3.20;;
1975;SDS011;988;48.016;7.800;2023-04-25T06:29:04;8.23;;;2.57;;
1975;SDS011;988;48.016;7.800;2023-04-25T06:31:30;3.13;;;2.70;;
1975;SDS011;988;48.016;7.800;2023-04-25T06:33:57;2.72;;;2.53;;
1975;SDS011;988;48.016;7.800;2023-04-25T06:36:23;3.10;;;2.53;;
1975;SDS011;988;48.016;7.800;2023-04-25T06:38:51;4.35;;;2.50;;
1975;SDS011;988;48.016;7.800;2023-04-25T06:41:17;2.90;;;2.70;;
1975;SDS011;988;48.016;7.800;2023-04-25T06:43:43;3.50;;;3.00;;
1975;SDS011;988;48.016;7.800;2023-04-25T06:46:08;3.20;;;2.90;;
1975;SDS011;988;48.016;7.800;2023-04-25T06:48:34;3.47;;;3.20;;
1975;SDS011;988;48.016;7.800;2023-04-25T06:51:00;2.60;;;2.40;;
1975;SDS011;988;48.016;7.800;2023-04-25T06:53:25;3.50;;;3.20;;
1975;SDS011;988;48.016;7.800;2023-04-25T06:55:51;4.00;;;3.40;;
1975;SDS011;988;48.016;7.800;2023-04-25T06:58:17;5.73;;;3.90;;
1975;SDS011;988;48.016;7.800;2023-04-25T07:00:42;4.38;;;3.10;;
1975;SDS011;988;48.016;7.800;2023-04-25T07:03:08;4.90;;;3.23;;
1975;SDS011;988;48.016;7.800;2023-04-25T07:05:34;5.40;;;3.20;;
1975;SDS011;988;48.016;7.800;2023-04-25T07:08:00;5.73;;;4.60;;
1975;SDS011;988;48.016;7.800;2023-04-25T07:10:25;5.27;;;4.80;;
1975;SDS011;988;48.016;7.800;2023-04-25T07:12:51;4.83;;;4.40;;
1975;SDS011;988;48.016;7.800;2023-04-25T07:15:17;5.20;;;4.40;;
1975;SDS011;988;48.016;7.800;2023-04-25T07:17:42;8.40;;;4.70;;
1975;SDS011;988;48.016;7.800;2023-04-25T07:20:08;5.40;;;4.37;;
1975;SDS011;988;48.016;7.800;2023-04-25T07:22:34;5.47;;;4.88;;
1975;SDS011;988;48.016;7.800;2023-04-25T07:25:00;8.00;;;4.77;;
1975;SDS011;988;48.016;7.800;2023-04-25T07:27:26;5.77;;;4.73;;
1975;SDS011;988;48.016;7.800;2023-04-25T07:29:51;6.40;;;4.27;;
1975;SDS011;988;48.016;7.800;2023-04-25T07:32:17;4.93;;;4.13;;
1975;SDS011;988;48.016;7.800;2023-04-25T07:34:42;7.10;;;4.93;;
1975;SDS011;988;48.016;7.800;2023-04-25T07:37:08;5.57;;;4.90;;
1975;SDS011;988;48.016;7.800;2023-04-25T07:39:34;5.40;;;4.37;;
1975;SDS011;988;48.016;7.800;2023-04-25T07:42:00;5.50;;;4.70;;
1975;SDS011;988;48.016;7.800;2023-04-25T07:44:27;5.50;;;5.00;;
1975;SDS011;988;48.016;7.800;2023-04-25T07:46:52;11.90;;;5.23;;
1975;SDS011;988;48.016;7.800;2023-04-25T07:49:18;5.10;;;4.50;;
1975;SDS011;988;48.016;7.800;2023-04-25T07:51:43;9.17;;;5.50;;
1975;SDS011;988;48.016;7.800;2023-04-25T07:54:10;8.53;;;5.40;;
1975;SDS011;988;48.016;7.800;2023-04-25T07:56:40;6.15;;;5.65;;
1975;SDS011;988;48.016;7.800;2023-04-25T07:59:05;7.20;;;6.03;;
1975;SDS011;988;48.016;7.800;2023-04-25T08:01:31;6.13;;;4.83;;
1975;SDS011;988;48.016;7.800;2023-04-25T08:03:59;5.78;;;4.88;;
1975;SDS011;988;48.016;7.800;2023-04-25T08:06:24;6.97;;;4.80;;
1975;SDS011;988;48.016;7.800;2023-04-25T08:08:50;7.00;;;6.00;;
1975;SDS011;988;48.016;7.800;2023-04-25T08:11:16;8.27;;;5.50;;
1975;SDS011;988;48.016;7.800;2023-04-25T08:13:41;5.47;;;5.00;;
1975;SDS011;988;48.016;7.800;2023-04-25T08:16:07;6.80;;;6.30;;
1975;SDS011;988;48.016;7.800;2023-04-25T08:18:32;6.90;;;6.40;;
1975;SDS011;988;48.016;7.800;2023-04-25T08:20:58;7.20;;;6.50;;
1975;SDS011;988;48.016;7.800;2023-04-25T08:23:24;6.97;;;6.57;;
1975;SDS011;988;48.016;7.800;2023-04-25T08:25:50;7.37;;;6.77;;
1975;SDS011;988;48.016;7.800;2023-04-25T08:28:16;7.30;;;6.70;;
1975;SDS011;988;48.016;7.800;2023-04-25T08:30:41;7.97;;;7.20;;
1975;SDS011;988;48.016;7.800;2023-04-25T08:33:07;7.30;;;6.70;;
1975;SDS011;988;48.016;7.800;2023-04-25T08:35:32;6.80;;;6.23;;
1975;SDS011;988;48.016;7.800;2023-04-25T08:37:58;7.30;;;6.60;;
1975;SDS011;988;48.016;7.800;2023-04-25T08:40:24;8.40;;;7.67;;
1975;SDS011;988;48.016;7.800;2023-04-25T08:42:55;6.97;;;6.15;;
1975;SDS011;988;48.016;7.800;2023-04-25T08:45:22;7.00;;;6.40;;
1975;SDS011;988;48.016;7.800;2023-04-25T08:47:50;7.53;;;6.80;;
1975;SDS011;988;48.016;7.800;2023-04-25T08:50:17;8.30;;;7.80;;
1975;SDS011;988;48.016;7.800;2023-04-25T08:52:46;6.72;;;6.32;;
1975;SDS011;988;48.016;7.800;2023-04-25T08:55:13;6.93;;;6.43;;
1975;SDS011;988;48.016;7.800;2023-04-25T08:57:39;6.57;;;5.97;;
1975;SDS011;988;48.016;7.800;2023-04-25T09:00:07;7.25;;;6.78;;
1975;SDS011;988;48.016;7.800;2023-04-25T09:02:34;10.45;;;7.22;;
1975;SDS011;988;48.016;7.800;2023-04-25T09:05:00;6.67;;;6.17;;
1975;SDS011;988;48.016;7.800;2023-04-25T09:07:27;6.40;;;5.90;;
1975;SDS011;988;48.016;7.800;2023-04-25T09:09:53;6.03;;;5.50;;
1975;SDS011;988;48.016;7.800;2023-04-25T09:12:19;6.10;;;5.60;;
1975;SDS011;988;48.016;7.800;2023-04-25T09:15:00;6.50;;;6.00;;
1975;SDS011;988;48.016;7.800;2023-04-25T09:17:30;6.70;;;6.20;;
1975;SDS011;988;48.016;7.800;2023-04-25T09:20:04;7.53;;;6.80;;
1975;SDS011;988;48.016;7.800;2023-04-25T09:22:32;8.18;;;6.90;;
1975;SDS011;988;48.016;7.800;2023-04-25T09:24:58;38.92;;;25.50;;
1975;SDS011;988;48.016;7.800;2023-04-25T09:27:28;7.65;;;7.15;;
1975;SDS011;988;48.016;7.800;2023-04-25T09:29:58;8.10;;;7.60;;
1975;SDS011;988;48.016;7.800;2023-04-25T09:32:25;7.65;;;7.15;;
1975;SDS011;988;48.016;7.800;2023-04-25T09:34:51;14.90;;;13.50;;
1975;SDS011;988;48.016;7.800;2023-04-25T09:39:54;13.10;;;12.20;;
1975;SDS011;988;48.016;7.800;2023-04-25T09:42:26;16.40;;;15.40;;
1975;SDS011;988;48.016;7.800;2023-04-25T09:44:54;18.02;;;17.10;;
1975;SDS011;988;48.016;7.800;2023-04-25T09:47:20;20.83;;;19.55;;
1975;SDS011;988;48.016;7.800;2023-04-25T09:49:48;18.60;;;17.30;;
1975;SDS011;988;48.016;7.800;2023-04-25T09:52:15;21.07;;;19.70;;
1975;SDS011;988;48.016;7.800;2023-04-25T09:54:45;19.50;;;18.30;;
1975;SDS011;988;48.016;7.800;2023-04-25T09:57:13;18.70;;;17.70;;
1975;SDS011;988;48.016;7.800;2023-04-25T09:59:44;20.20;;;19.00;;
1975;SDS011;988;48.016;7.800;2023-04-25T10:02:18;18.90;;;17.90;;
1975;SDS011;988;48.016;7.800;2023-04-25T10:04:49;19.30;;;18.30;;
1975;SDS011;988;48.016;7.800;2023-04-25T10:07:18;20.47;;;19.30;;
1975;SDS011;988;48.016;7.800;2023-04-25T10:09:47;19.20;;;18.20;;
1975;SDS011;988;48.016;7.800;2023-04-25T10:12:15;19.90;;;18.80;;
1975;SDS011;988;48.016;7.800;2023-04-25T10:14:41;19.87;;;18.77;;
1975;SDS011;988;48.016;7.800;2023-04-25T10:17:08;20.17;;;18.97;;
1975;SDS011;988;48.016;7.800;2023-04-25T10:19:36;20.00;;;18.90;;
1975;SDS011;988;48.016;7.800;2023-04-25T10:22:13;20.37;;;19.27;;
1975;SDS011;988;48.016;7.800;2023-04-25T10:24:43;21.30;;;20.10;;
1975;SDS011;988;48.016;7.800;2023-04-25T10:27:11;20.13;;;19.07;;
1975;SDS011;988;48.016;7.800;2023-04-25T10:29:37;21.23;;;20.13;;
1975;SDS011;988;48.016;7.800;2023-04-25T10:32:03;22.57;;;21.37;;
1975;SDS011;988;48.016;7.800;2023-04-25T10:34:50;20.60;;;19.50;;
1975;SDS011;988;48.016;7.800;2023-04-25T10:37:15;20.50;;;19.30;;
1975;SDS011;988;48.016;7.800;2023-04-25T10:39:41;20.30;;;19.10;;
1975;SDS011;988;48.016;7.800;2023-04-25T10:42:07;20.13;;;19.03;;
1975;SDS011;988;48.016;7.800;2023-04-25T10:44:33;20.57;;;19.57;;
1975;SDS011;988;48.016;7.800;2023-04-25T10:47:01;19.60;;;18.60;;
1975;SDS011;988;48.016;7.800;2023-04-25T10:49:37;19.90;;;18.80;;
1975;SDS011;988;48.016;7.800;2023-04-25T10:52:10;21.30;;;19.50;;
1975;SDS011;988;48.016;7.800;2023-04-25T10:54:47;19.70;;;18.60;;
1975;SDS011;988;48.016;7.800;2023-04-25T10:57:34;20.83;;;19.73;;
1975;SDS011;988;48.016;7.800;2023-04-25T11:05:10;19.67;;;18.50;;
1975;SDS011;988;48.016;7.800;2023-04-25T11:07:54;19.43;;;18.33;;
1975;SDS011;988;48.016;7.800;2023-04-25T11:10:29;18.80;;;17.90;;
1975;SDS011;988;48.016;7.800;2023-04-25T11:12:56;20.00;;;18.50;;
1975;SDS011;988;48.016;7.800;2023-04-25T11:15:25;19.90;;;18.90;;
1975;SDS011;988;48.016;7.800;2023-04-25T11:17:51;19.63;;;18.53;;
1975;SDS011;988;48.016;7.800;2023-04-25T11:20:17;20.30;;;19.30;;
1975;SDS011;988;48.016;7.800;2023-04-25T11:22:46;19.50;;;18.50;;
1975;SDS011;988;48.016;7.800;2023-04-25T11:25:13;18.90;;;17.90;;
1975;SDS011;988;48.016;7.800;2023-04-25T11:27:56;19.37;;;18.37;;
1975;SDS011;988;48.016;7.800;2023-04-25T11:30:22;19.27;;;18.27;;
1975;SDS011;988;48.016;7.800;2023-04-25T11:32:50;18.80;;;17.80;;
1975;SDS011;988;48.016;7.800;2023-04-25T11:35:16;18.80;;;17.70;;
1975;SDS011;988;48.016;7.800;2023-04-25T11:37:43;20.30;;;19.30;;
1975;SDS011;988;48.016;7.800;2023-04-25T11:40:09;20.17;;;18.97;;
1975;SDS011;988;48.016;7.800;2023-04-25T11:42:37;20.57;;;19.40;;
1975;SDS011;988;48.016;7.800;2023-04-25T11:45:03;20.70;;;19.60;;
1975;SDS011;988;48.016;7.800;2023-04-25T11:47:32;22.70;;;21.40;;
1975;SDS011;988;48.016;7.800;2023-04-25T11:50:03;20.20;;;19.10;;
1975;SDS011;988;48.016;7.800;2023-04-25T11:52:40;21.20;;;20.10;;
1975;SDS011;988;48.016;7.800;2023-04-25T11:55:12;21.40;;;20.40;;
1975;SDS011;988;48.016;7.800;2023-04-25T11:57:43;18.23;;;17.30;;
1975;SDS011;988;48.016;7.800;2023-04-25T12:00:15;17.90;;;16.77;;
1975;SDS011;988;48.016;7.800;2023-04-25T12:03:05;18.10;;;17.13;;
1975;SDS011;988;48.016;7.800;2023-04-25T12:05:34;17.23;;;16.33;;
1975;SDS011;988;48.016;7.800;2023-04-25T12:08:09;17.17;;;16.37;;
1975;SDS011;988;48.016;7.800;2023-04-25T12:10:38;17.70;;;16.80;;
1975;SDS011;988;48.016;7.800;2023-04-25T12:13:20;18.20;;;17.20;;
1975;SDS011;988;48.016;7.800;2023-04-25T12:15:47;18.17;;;17.37;;
1975;SDS011;988;48.016;7.800;2023-04-25T12:18:12;17.77;;;16.80;;
1975;SDS011;988;48.016;7.800;2023-04-25T12:20:38;18.03;;;17.13;;
1975;SDS011;988;48.016;7.800;2023-04-25T12:23:06;18.10;;;17.20;;
1975;SDS011;988;48.016;7.800;2023-04-25T12:33:25;18.40;;;17.40;;
1975;SDS011;988;48.016;7.800;2023-04-25T12:35:53;16.97;;;16.27;;
1975;SDS011;988;48.016;7.800;2023-04-25T12:38:23;16.90;;;16.00;;
1975;SDS011;988;48.016;7.800;2023-04-25T12:40:54;16.93;;;16.13;;
1975;SDS011;988;48.016;7.800;2023-04-25T12:43:20;18.90;;;17.90;;
1975;SDS011;988;48.016;7.800;2023-04-25T12:45:49;17.30;;;16.50;;
1975;SDS011;988;48.016;7.800;2023-04-25T12:48:16;17.97;;;17.07;;
1975;SDS011;988;48.016;7.800;2023-04-25T12:50:42;18.33;;;17.33;;
1975;SDS011;988;48.016;7.800;2023-04-25T12:53:08;17.53;;;16.73;;
1975;SDS011;988;48.016;7.800;2023-04-25T12:55:33;17.73;;;16.80;;
1975;SDS011;988;48.016;7.800;2023-04-25T12:57:59;18.03;;;17.13;;
1975;SDS011;988;48.016;7.800;2023-04-25T13:00:25;17.90;;;17.10;;
1975;SDS011;988;48.016;7.800;2023-04-25T13:02:51;17.73;;;16.93;;
1975;SDS011;988;48.016;7.800;2023-04-25T13:05:17;18.30;;;17.40;;
1975;SDS011;988;48.016;7.800;2023-04-25T13:07:42;18.70;;;17.70;;
1975;SDS011;988;48.016;7.800;2023-04-25T13:10:08;32.33;;;29.90;;
1975;SDS011;988;48.016;7.800;2023-04-25T13:12:33;17.47;;;16.60;;
1975;SDS011;988;48.016;7.800;2023-04-25T13:14:59;17.43;;;16.50;;
1975;SDS011;988;48.016;7.800;2023-04-25T13:17:25;17.27;;;16.43;;
1975;SDS011;988;48.016;7.800;2023-04-25T13:19:50;17.63;;;16.63;;
1975;SDS011;988;48.016;7.800;2023-04-25T13:22:18;16.77;;;15.97;;
1975;SDS011;988;48.016;7.800;2023-04-25T13:24:45;16.90;;;16.10;;
1975;SDS011;988;48.016;7.800;2023-04-25T13:27:11;18.03;;;17.03;;
1975;SDS011;988;48.016;7.800;2023-04-25T13:29:39;16.37;;;15.57;;
1975;SDS011;988;48.016;7.800;2023-04-25T13:32:05;16.50;;;15.70;;
1975;SDS011;988;48.016;7.800;2023-04-25T13:34:31;15.63;;;14.90;;
1975;SDS011;988;48.016;7.800;2023-04-25T13:36:57;17.70;;;16.80;;
1975;SDS011;988;48.016;7.800;2023-04-25T13:39:23;18.10;;;16.70;;
1975;SDS011;988;48.016;7.800;2023-04-25T13:41:51;17.60;;;16.60;;
1975;SDS011;988;48.016;7.800;2023-04-25T13:44:16;18.03;;;16.93;;
1975;SDS011;988;48.016;7.800;2023-04-25T13:46:42;17.10;;;16.30;;
1975;SDS011;988;48.016;7.800;2023-04-25T13:49:07;17.30;;;16.50;;
1975;SDS011;988;48.016;7.800;2023-04-25T13:51:33;17.07;;;16.30;;
1975;SDS011;988;48.016;7.800;2023-04-25T13:53:59;16.23;;;15.53;;
1975;SDS011;988;48.016;7.800;2023-04-25T13:56:25;17.23;;;16.43;;
1975;SDS011;988;48.016;7.800;2023-04-25T13:58:51;17.00;;;16.20;;
1975;SDS011;988;48.016;7.800;2023-04-25T14:01:17;17.50;;;16.70;;
1975;SDS011;988;48.016;7.800;2023-04-25T14:03:43;19.10;;;18.20;;
1975;SDS011;988;48.016;7.800;2023-04-25T14:06:10;19.83;;;18.83;;
1975;SDS011;988;48.016;7.800;2023-04-25T14:08:37;18.27;;;17.37;;
1975;SDS011;988;48.016;7.800;2023-04-25T14:11:03;18.60;;;17.70;;
1975;SDS011;988;48.016;7.800;2023-04-25T14:13:28;17.50;;;16.70;;
1975;SDS011;988;48.016;7.800;2023-04-25T14:15:54;18.20;;;17.40;;
1975;SDS011;988;48.016;7.800;2023-04-25T14:18:20;18.10;;;17.20;;
1975;SDS011;988;48.016;7.800;2023-04-25T14:20:45;17.13;;;16.33;;
1975;SDS011;988;48.016;7.800;2023-04-25T14:23:11;16.90;;;16.10;;
1975;SDS011;988;48.016;7.800;2023-04-25T14:25:37;16.67;;;15.90;;
1975;SDS011;988;48.016;7.800;2023-04-25T14:28:03;17.70;;;16.87;;
1975;SDS011;988;48.016;7.800;2023-04-25T14:30:28;17.50;;;16.40;;
1975;SDS011;988;48.016;7.800;2023-04-25T14:32:54;16.73;;;15.80;;
1975;SDS011;988;48.016;7.800;2023-04-25T14:35:20;16.40;;;15.60;;
1975;SDS011;988;48.016;7.800;2023-04-25T14:37:45;16.60;;;15.90;;
1975;SDS011;988;48.016;7.800;2023-04-25T14:40:11;17.60;;;16.80;;
1975;SDS011;988;48.016;7.800;2023-04-25T14:42:40;16.87;;;16.17;;
1975;SDS011;988;48.016;7.800;2023-04-25T14:45:06;16.27;;;15.57;;
1975;SDS011;988;48.016;7.800;2023-04-25T14:47:36;17.20;;;16.40;;
1975;SDS011;988;48.016;7.800;2023-04-25T14:50:02;17.97;;;16.70;;
1975;SDS011;988;48.016;7.800;2023-04-25T14:52:27;17.60;;;16.80;;
1975;SDS011;988;48.016;7.800;2023-04-25T14:54:53;18.20;;;17.10;;
1975;SDS011;988;48.016;7.800;2023-04-25T14:57:19;18.23;;;17.33;;
1975;SDS011;988;48.016;7.800;2023-04-25T14:59:44;18.67;;;17.77;;
1975;SDS011;988;48.016;7.800;2023-04-25T15:02:10;20.23;;;19.07;;
1975;SDS011;988;48.016;7.800;2023-04-25T15:04:36;19.27;;;18.27;;
1975;SDS011;988;48.016;7.800;2023-04-25T15:07:01;18.33;;;17.43;;
1975;SDS011;988;48.016;7.800;2023-04-25T15:09:27;19.47;;;18.47;;
1975;SDS011;988;48.016;7.800;2023-04-25T15:11:53;19.13;;;18.23;;
1975;SDS011;988;48.016;7.800;2023-04-25T15:14:19;18.87;;;17.97;;
1975;SDS011;988;48.016;7.800;2023-04-25T15:16:44;19.87;;;18.87;;
1975;SDS011;988;48.016;7.800;2023-04-25T15:19:10;17.67;;;16.87;;
1975;SDS011;988;48.016;7.800;2023-04-25T15:21:36;17.13;;;16.33;;